Polar Ranger — WDC8652 — position and weather

sailwx.info

Track history (hours):
 
Tides and Currents Weather Stations Pressure Air Temp Water Temp Dewpoint Dewpoint Depression Visibility Wind Speed Wind Dir Waves Ship Positions

Polar Ranger

Owner: Dunlap Towing Co., LaConner, WA. More information available from US FCC via Universal Licensing System and Coast Guard Vessel Documentation Center.

Last reported at 2015-Jun-17 15:33 UTC. Time now 2015-Jul-05 21:04 UTC.
Position N 47°59' W 122°13'.
Warning: this ship's position is 18 days out of date.

Type: Tow > 200 m length. MMSI: 367090860.

Date/timePositionNaut miles runAvg speedWind from/ knotsBaromVisibWave heightAir tempDewpointWater temp
2015-Jun-17 15:33N 47°59' W 122°13'0 0.0
2015-Jun-17 14:33N 47°59' W 122°13'0 0.0
2015-Jun-17 13:33N 47°59' W 122°13'0 0.0
2015-Jun-17 12:33N 47°59' W 122°13'0 0.0
2015-Jun-17 11:33N 47°59' W 122°13'0 0.0
2015-Jun-17 10:33N 47°59' W 122°13'0 0.0
2015-Jun-17 09:33N 47°59' W 122°13'0 0.0
2015-Jun-17 08:33N 47°59' W 122°13'0 0.0
2015-Jun-17 07:33N 47°59' W 122°13'0 0.0
2015-Jun-17 06:33N 47°59' W 122°13'0 0.0
2015-Jun-17 05:33N 47°59' W 122°13'0 0.0
2015-Jun-17 04:33N 47°59' W 122°13'0 0.0
2015-Jun-17 03:33N 47°59' W 122°13'0 0.0
2015-Jun-17 02:33N 47°59' W 122°13'0 0.0
2015-Jun-17 01:33N 47°59' W 122°13'0 0.0
2015-Jun-17 00:33N 47°59' W 122°13'8 9.4
2015-Jun-16 23:40N 47°53' W 122°22'215.0
2015-Jun-16 23:34N 47°52' W 122°23'213.7
2015-Jun-16 23:25N 47°50' W 122°24'1113.3
2015-Jun-16 22:33N 47°38' W 122°25'213.2
2015-Jun-16 22:24N 47°37' W 122°23'5 5.4
2015-Jun-16 21:33N 47°40' W 122°28'1010.0
2015-Jun-16 20:33N 47°50' W 122°28'0 9.4
2015-Jun-16 20:32N 47°50' W 122°28'9 9.4
2015-Jun-16 19:33N 47°58' W 122°36'20 8.7
2015-Jun-16 17:18N 48°16' W 122°49'811.3
2015-Jun-16 16:33N 48°24' W 122°45'212.7
2015-Jun-16 16:22N 48°26' W 122°45'1113.2
2015-Jun-16 15:34N 48°37' W 122°45'10 9.5
2015-Jun-16 14:33N 48°46' W 122°50'1010.2
2015-Jun-16 13:33N 48°51' W 123°03'10 9.7
2015-Jun-16 12:33N 48°57' W 123°14'9 9.4
2015-Jun-16 11:34N 49°03' W 123°25'9 9.0
2015-Jun-16 10:34N 49°10' W 123°34'10 9.9
2015-Jun-16 09:34N 49°18' W 123°44'9 9.0
2015-Jun-16 08:33N 49°23' W 123°54'9 8.5
2015-Jun-16 07:29N 49°28' W 124°06'10 8.7
2015-Jun-16 06:24N 49°33' W 124°19'94 7.9
2015-Jun-15 18:28N 50°29' W 126°16'8 8.7
2015-Jun-15 17:32N 50°30' W 126°29'9 7.4
2015-Jun-15 16:19N 50°34' W 126°41'6 7.3
2015-Jun-15 15:33N 50°38' W 126°47'9 7.3
2015-Jun-15 14:20N 50°44' W 126°58'6 7.2
2015-Jun-15 13:32N 50°47' W 127°06'7 7.0
2015-Jun-15 12:33N 50°51' W 127°15'7 7.5
2015-Jun-15 11:33N 50°55' W 127°25'7 7.3
2015-Jun-15 10:33N 50°59' W 127°34'8 8.3
2015-Jun-15 09:33N 51°05' W 127°43'9 8.8
2015-Jun-15 08:32N 51°12' W 127°52'10 9.4
2015-Jun-15 07:29N 51°22' W 127°57'9 9.1
2015-Jun-15 06:32N 51°27' W 128°08'242 9.0
2015-Jun-14 03:29N 54°53' W 131°43'8 8.8
2015-Jun-14 02:33N 55°01' W 131°47'22 9.9
2015-Jun-14 00:21N 55°21' W 131°59'810.6
2015-Jun-13 23:33N 55°29' W 132°06'210 7.7
2015-Jun-12 20:12N 58°17' W 135°56'10 9.0
2015-Jun-12 19:08N 58°13' W 136°12'1 0.9
2015-Jun-12 18:30N 58°13' W 136°11'0 0.0
2015-Jun-12 17:30N 58°13' W 136°11'1 1.4
2015-Jun-12 16:33N 58°14' W 136°12'  
Track history (hours):
 
Tides and Currents Weather Stations Pressure Air Temp Water Temp Dewpoint Dewpoint Depression Visibility Wind Speed Wind Dir Waves Ship Positions

Polar Ranger

Owner: Dunlap Towing Co., LaConner, WA. More information available from US FCC via Universal Licensing System and Coast Guard Vessel Documentation Center.

Last reported at 2015-Jun-17 15:33 UTC. Time now 2015-Jul-05 21:04 UTC.
Position N 47°59' W 122°13'.
Warning: this ship's position is 18 days out of date.

Type: Tow > 200 m length. MMSI: 367090860.

Date/timePositionNaut miles runAvg speedWind from/ knotsBaromVisibWave heightAir tempDewpointWater temp
2015-Jun-17 15:33N 47°59' W 122°13'0 0.0
2015-Jun-17 14:33N 47°59' W 122°13'0 0.0
2015-Jun-17 13:33N 47°59' W 122°13'0 0.0
2015-Jun-17 12:33N 47°59' W 122°13'0 0.0
2015-Jun-17 11:33N 47°59' W 122°13'0 0.0
2015-Jun-17 10:33N 47°59' W 122°13'0 0.0
2015-Jun-17 09:33N 47°59' W 122°13'0 0.0
2015-Jun-17 08:33N 47°59' W 122°13'0 0.0
2015-Jun-17 07:33N 47°59' W 122°13'0 0.0
2015-Jun-17 06:33N 47°59' W 122°13'0 0.0
2015-Jun-17 05:33N 47°59' W 122°13'0 0.0
2015-Jun-17 04:33N 47°59' W 122°13'0 0.0
2015-Jun-17 03:33N 47°59' W 122°13'0 0.0
2015-Jun-17 02:33N 47°59' W 122°13'0 0.0
2015-Jun-17 01:33N 47°59' W 122°13'0 0.0
2015-Jun-17 00:33N 47°59' W 122°13'8 9.4
2015-Jun-16 23:40N 47°53' W 122°22'215.0
2015-Jun-16 23:34N 47°52' W 122°23'213.7
2015-Jun-16 23:25N 47°50' W 122°24'1113.3
2015-Jun-16 22:33N 47°38' W 122°25'213.2
2015-Jun-16 22:24N 47°37' W 122°23'5 5.4
2015-Jun-16 21:33N 47°40' W 122°28'1010.0
2015-Jun-16 20:33N 47°50' W 122°28'0 9.4
2015-Jun-16 20:32N 47°50' W 122°28'9 9.4
2015-Jun-16 19:33N 47°58' W 122°36'20 8.7
2015-Jun-16 17:18N 48°16' W 122°49'811.3
2015-Jun-16 16:33N 48°24' W 122°45'212.7
2015-Jun-16 16:22N 48°26' W 122°45'1113.2
2015-Jun-16 15:34N 48°37' W 122°45'10 9.5
2015-Jun-16 14:33N 48°46' W 122°50'1010.2
2015-Jun-16 13:33N 48°51' W 123°03'10 9.7
2015-Jun-16 12:33N 48°57' W 123°14'9 9.4
2015-Jun-16 11:34N 49°03' W 123°25'9 9.0
2015-Jun-16 10:34N 49°10' W 123°34'10 9.9
2015-Jun-16 09:34N 49°18' W 123°44'9 9.0
2015-Jun-16 08:33N 49°23' W 123°54'9 8.5
2015-Jun-16 07:29N 49°28' W 124°06'10 8.7
2015-Jun-16 06:24N 49°33' W 124°19'94 7.9
2015-Jun-15 18:28N 50°29' W 126°16'8 8.7
2015-Jun-15 17:32N 50°30' W 126°29'9 7.4
2015-Jun-15 16:19N 50°34' W 126°41'6 7.3
2015-Jun-15 15:33N 50°38' W 126°47'9 7.3
2015-Jun-15 14:20N 50°44' W 126°58'6 7.2
2015-Jun-15 13:32N 50°47' W 127°06'7 7.0
2015-Jun-15 12:33N 50°51' W 127°15'7 7.5
2015-Jun-15 11:33N 50°55' W 127°25'7 7.3
2015-Jun-15 10:33N 50°59' W 127°34'8 8.3
2015-Jun-15 09:33N 51°05' W 127°43'9 8.8
2015-Jun-15 08:32N 51°12' W 127°52'10 9.4
2015-Jun-15 07:29N 51°22' W 127°57'9 9.1
2015-Jun-15 06:32N 51°27' W 128°08'242 9.0
2015-Jun-14 03:29N 54°53' W 131°43'8 8.8
2015-Jun-14 02:33N 55°01' W 131°47'22 9.9
2015-Jun-14 00:21N 55°21' W 131°59'810.6
2015-Jun-13 23:33N 55°29' W 132°06'210 7.7
2015-Jun-12 20:12N 58°17' W 135°56'10 9.0
2015-Jun-12 19:08N 58°13' W 136°12'1 0.9
2015-Jun-12 18:30N 58°13' W 136°11'0 0.0
2015-Jun-12 17:30N 58°13' W 136°11'1 1.4
2015-Jun-12 16:33N 58°14' W 136°12'  

Dump ship's entire track history